sensor_id;sensor_type;location;lat;lon;timestamp;P1;durP1;ratioP1;P2;durP2;ratioP2
37299;SDS011;23184;51.902;12.836;2023-04-24T00:02:12;13.30;;;9.88;;
37299;SDS011;23184;51.902;12.836;2023-04-24T00:04:37;13.40;;;9.80;;
37299;SDS011;23184;51.902;12.836;2023-04-24T00:07:06;14.38;;;10.25;;
37299;SDS011;23184;51.902;12.836;2023-04-24T00:09:33;12.70;;;10.32;;
37299;SDS011;23184;51.902;12.836;2023-04-24T00:11:58;15.02;;;10.38;;
37299;SDS011;23184;51.902;12.836;2023-04-24T00:14:24;15.07;;;11.32;;
37299;SDS011;23184;51.902;12.836;2023-04-24T00:16:50;15.05;;;11.73;;
37299;SDS011;23184;51.902;12.836;2023-04-24T00:19:15;16.25;;;10.93;;
37299;SDS011;23184;51.902;12.836;2023-04-24T00:21:41;14.98;;;11.57;;
37299;SDS011;23184;51.902;12.836;2023-04-24T00:24:07;17.17;;;11.52;;
37299;SDS011;23184;51.902;12.836;2023-04-24T00:26:34;17.00;;;12.05;;
37299;SDS011;23184;51.902;12.836;2023-04-24T00:28:59;18.88;;;11.45;;
37299;SDS011;23184;51.902;12.836;2023-04-24T00:31:25;17.98;;;11.80;;
37299;SDS011;23184;51.902;12.836;2023-04-24T00:33:50;16.48;;;12.63;;
37299;SDS011;23184;51.902;12.836;2023-04-24T00:36:16;16.38;;;12.07;;
37299;SDS011;23184;51.902;12.836;2023-04-24T00:38:41;14.88;;;12.32;;
37299;SDS011;23184;51.902;12.836;2023-04-24T00:41:07;17.95;;;11.52;;
37299;SDS011;23184;51.902;12.836;2023-04-24T00:43:32;14.90;;;11.23;;
37299;SDS011;23184;51.902;12.836;2023-04-24T00:45:58;15.70;;;11.45;;
37299;SDS011;23184;51.902;12.836;2023-04-24T00:48:26;16.98;;;10.15;;
37299;SDS011;23184;51.902;12.836;2023-04-24T00:50:52;13.43;;;10.40;;
37299;SDS011;23184;51.902;12.836;2023-04-24T00:53:18;12.40;;;9.25;;
37299;SDS011;23184;51.902;12.836;2023-04-24T00:55:43;14.57;;;10.73;;
37299;SDS011;23184;51.902;12.836;2023-04-24T00:58:09;16.02;;;10.27;;
37299;SDS011;23184;51.902;12.836;2023-04-24T01:00:35;13.50;;;10.02;;
37299;SDS011;23184;51.902;12.836;2023-04-24T01:03:01;14.15;;;9.45;;
37299;SDS011;23184;51.902;12.836;2023-04-24T01:05:30;13.23;;;9.73;;
37299;SDS011;23184;51.902;12.836;2023-04-24T01:07:57;12.00;;;9.43;;
37299;SDS011;23184;51.902;12.836;2023-04-24T01:10:24;14.60;;;9.48;;
37299;SDS011;23184;51.902;12.836;2023-04-24T01:12:52;12.88;;;9.90;;
37299;SDS011;23184;51.902;12.836;2023-04-24T01:15:18;12.25;;;8.73;;
37299;SDS011;23184;51.902;12.836;2023-04-24T01:17:43;10.82;;;8.73;;
37299;SDS011;23184;51.902;12.836;2023-04-24T01:20:10;12.40;;;9.00;;
37299;SDS011;23184;51.902;12.836;2023-04-24T01:22:35;12.23;;;9.15;;
37299;SDS011;23184;51.902;12.836;2023-04-24T01:25:02;10.88;;;8.90;;
37299;SDS011;23184;51.902;12.836;2023-04-24T01:27:27;10.82;;;8.90;;
37299;SDS011;23184;51.902;12.836;2023-04-24T01:29:53;15.15;;;8.90;;
37299;SDS011;23184;51.902;12.836;2023-04-24T01:32:19;15.13;;;9.70;;
37299;SDS011;23184;51.902;12.836;2023-04-24T01:34:45;12.50;;;9.77;;
37299;SDS011;23184;51.902;12.836;2023-04-24T01:37:11;12.25;;;9.63;;
37299;SDS011;23184;51.902;12.836;2023-04-24T01:39:37;14.68;;;9.48;;
37299;SDS011;23184;51.902;12.836;2023-04-24T01:42:03;13.50;;;10.13;;
37299;SDS011;23184;51.902;12.836;2023-04-24T01:44:30;11.55;;;9.20;;
37299;SDS011;23184;51.902;12.836;2023-04-24T01:46:55;14.65;;;11.13;;
37299;SDS011;23184;51.902;12.836;2023-04-24T01:49:21;14.02;;;10.10;;
37299;SDS011;23184;51.902;12.836;2023-04-24T01:51:47;13.57;;;10.25;;
37299;SDS011;23184;51.902;12.836;2023-04-24T01:54:13;12.55;;;10.00;;
37299;SDS011;23184;51.902;12.836;2023-04-24T01:56:41;16.65;;;10.15;;
37299;SDS011;23184;51.902;12.836;2023-04-24T01:59:08;12.25;;;9.90;;
37299;SDS011;23184;51.902;12.836;2023-04-24T02:01:35;15.65;;;11.18;;
37299;SDS011;23184;51.902;12.836;2023-04-24T02:04:01;12.18;;;9.63;;
37299;SDS011;23184;51.902;12.836;2023-04-24T02:06:27;12.15;;;9.88;;
37299;SDS011;23184;51.902;12.836;2023-04-24T02:08:53;11.45;;;8.70;;
37299;SDS011;23184;51.902;12.836;2023-04-24T02:11:18;10.75;;;8.55;;
37299;SDS011;23184;51.902;12.836;2023-04-24T02:13:44;12.70;;;9.48;;
37299;SDS011;23184;51.902;12.836;2023-04-24T02:16:10;13.20;;;10.27;;
37299;SDS011;23184;51.902;12.836;2023-04-24T02:18:35;13.93;;;9.25;;
37299;SDS011;23184;51.902;12.836;2023-04-24T02:21:01;12.43;;;9.52;;
37299;SDS011;23184;51.902;12.836;2023-04-24T02:23:26;12.40;;;8.80;;
37299;SDS011;23184;51.902;12.836;2023-04-24T02:25:52;13.13;;;9.05;;
37299;SDS011;23184;51.902;12.836;2023-04-24T02:28:18;12.35;;;8.95;;
37299;SDS011;23184;51.902;12.836;2023-04-24T02:30:44;10.18;;;8.02;;
37299;SDS011;23184;51.902;12.836;2023-04-24T02:33:10;11.88;;;8.25;;
37299;SDS011;23184;51.902;12.836;2023-04-24T02:35:36;11.90;;;8.80;;
37299;SDS011;23184;51.902;12.836;2023-04-24T02:38:02;11.55;;;8.32;;
37299;SDS011;23184;51.902;12.836;2023-04-24T02:40:29;14.18;;;8.00;;
37299;SDS011;23184;51.902;12.836;2023-04-24T02:42:54;11.15;;;7.82;;
37299;SDS011;23184;51.902;12.836;2023-04-24T02:45:20;12.70;;;7.32;;
37299;SDS011;23184;51.902;12.836;2023-04-24T02:47:46;10.80;;;7.30;;
37299;SDS011;23184;51.902;12.836;2023-04-24T02:50:11;9.13;;;7.53;;
37299;SDS011;23184;51.902;12.836;2023-04-24T02:52:37;10.27;;;7.93;;
37299;SDS011;23184;51.902;12.836;2023-04-24T02:55:02;10.88;;;8.23;;
37299;SDS011;23184;51.902;12.836;2023-04-24T02:57:28;9.38;;;7.32;;
37299;SDS011;23184;51.902;12.836;2023-04-24T02:59:54;10.20;;;7.32;;
37299;SDS011;23184;51.902;12.836;2023-04-24T03:02:19;11.27;;;8.32;;
37299;SDS011;23184;51.902;12.836;2023-04-24T03:04:45;10.13;;;7.53;;
37299;SDS011;23184;51.902;12.836;2023-04-24T03:07:13;11.23;;;6.88;;
37299;SDS011;23184;51.902;12.836;2023-04-24T03:09:39;12.27;;;7.15;;
37299;SDS011;23184;51.902;12.836;2023-04-24T03:12:05;9.02;;;6.40;;
37299;SDS011;23184;51.902;12.836;2023-04-24T03:14:31;7.55;;;5.53;;
37299;SDS011;23184;51.902;12.836;2023-04-24T03:16:56;7.20;;;5.47;;
37299;SDS011;23184;51.902;12.836;2023-04-24T03:19:22;7.22;;;5.10;;
37299;SDS011;23184;51.902;12.836;2023-04-24T03:21:48;7.35;;;4.45;;
37299;SDS011;23184;51.902;12.836;2023-04-24T03:24:13;6.05;;;4.30;;
37299;SDS011;23184;51.902;12.836;2023-04-24T03:26:39;4.65;;;2.97;;
37299;SDS011;23184;51.902;12.836;2023-04-24T03:29:04;7.63;;;2.88;;
37299;SDS011;23184;51.902;12.836;2023-04-24T03:31:30;5.43;;;3.20;;
37299;SDS011;23184;51.902;12.836;2023-04-24T03:33:55;6.00;;;3.35;;
37299;SDS011;23184;51.902;12.836;2023-04-24T03:36:21;6.28;;;2.75;;
37299;SDS011;23184;51.902;12.836;2023-04-24T03:38:46;3.85;;;2.63;;
37299;SDS011;23184;51.902;12.836;2023-04-24T03:41:11;2.88;;;2.40;;
37299;SDS011;23184;51.902;12.836;2023-04-24T03:43:37;3.22;;;2.40;;
37299;SDS011;23184;51.902;12.836;2023-04-24T03:46:03;2.40;;;1.90;;
37299;SDS011;23184;51.902;12.836;2023-04-24T03:48:29;2.42;;;1.90;;
37299;SDS011;23184;51.902;12.836;2023-04-24T03:50:54;5.18;;;1.70;;
37299;SDS011;23184;51.902;12.836;2023-04-24T03:53:20;1.83;;;1.60;;
37299;SDS011;23184;51.902;12.836;2023-04-24T03:55:46;2.13;;;1.40;;
37299;SDS011;23184;51.902;12.836;2023-04-24T03:58:11;3.25;;;1.85;;
37299;SDS011;23184;51.902;12.836;2023-04-24T04:00:38;3.17;;;1.58;;
37299;SDS011;23184;51.902;12.836;2023-04-24T04:03:05;2.88;;;1.40;;
37299;SDS011;23184;51.902;12.836;2023-04-24T04:05:30;1.98;;;1.30;;
37299;SDS011;23184;51.902;12.836;2023-04-24T04:07:56;2.05;;;1.40;;
37299;SDS011;23184;51.902;12.836;2023-04-24T04:10:22;3.85;;;1.40;;
37299;SDS011;23184;51.902;12.836;2023-04-24T04:12:47;2.75;;;1.50;;
37299;SDS011;23184;51.902;12.836;2023-04-24T04:15:13;3.42;;;1.40;;
37299;SDS011;23184;51.902;12.836;2023-04-24T04:17:38;2.03;;;1.60;;
37299;SDS011;23184;51.902;12.836;2023-04-24T04:20:04;1.65;;;1.40;;
37299;SDS011;23184;51.902;12.836;2023-04-24T04:22:34;2.97;;;1.33;;
37299;SDS011;23184;51.902;12.836;2023-04-24T04:24:59;3.05;;;1.25;;
37299;SDS011;23184;51.902;12.836;2023-04-24T04:27:25;7.45;;;1.52;;
37299;SDS011;23184;51.902;12.836;2023-04-24T04:29:51;3.03;;;1.20;;
37299;SDS011;23184;51.902;12.836;2023-04-24T04:32:17;1.50;;;1.13;;
37299;SDS011;23184;51.902;12.836;2023-04-24T04:34:42;3.05;;;0.90;;
37299;SDS011;23184;51.902;12.836;2023-04-24T04:37:10;2.00;;;1.08;;
37299;SDS011;23184;51.902;12.836;2023-04-24T04:39:37;2.28;;;1.30;;
37299;SDS011;23184;51.902;12.836;2023-04-24T04:42:03;1.83;;;1.05;;
37299;SDS011;23184;51.902;12.836;2023-04-24T04:44:28;2.28;;;1.10;;
37299;SDS011;23184;51.902;12.836;2023-04-24T04:46:55;2.75;;;1.55;;
37299;SDS011;23184;51.902;12.836;2023-04-24T04:49:21;1.30;;;1.20;;
37299;SDS011;23184;51.902;12.836;2023-04-24T04:51:48;2.47;;;1.25;;
37299;SDS011;23184;51.902;12.836;2023-04-24T04:54:15;2.95;;;1.20;;
37299;SDS011;23184;51.902;12.836;2023-04-24T04:56:41;2.28;;;1.48;;
37299;SDS011;23184;51.902;12.836;2023-04-24T04:59:06;3.33;;;1.50;;
37299;SDS011;23184;51.902;12.836;2023-04-24T05:01:32;2.92;;;1.20;;
37299;SDS011;23184;51.902;12.836;2023-04-24T05:03:57;1.92;;;1.35;;
37299;SDS011;23184;51.902;12.836;2023-04-24T05:06:23;3.67;;;1.50;;
37299;SDS011;23184;51.902;12.836;2023-04-24T05:08:49;1.90;;;1.15;;
37299;SDS011;23184;51.902;12.836;2023-04-24T05:11:14;3.05;;;1.65;;
37299;SDS011;23184;51.902;12.836;2023-04-24T05:13:40;2.15;;;1.20;;
37299;SDS011;23184;51.902;12.836;2023-04-24T05:16:06;3.50;;;1.20;;
37299;SDS011;23184;51.902;12.836;2023-04-24T05:18:31;2.28;;;1.38;;
37299;SDS011;23184;51.902;12.836;2023-04-24T05:20:57;3.70;;;1.08;;
37299;SDS011;23184;51.902;12.836;2023-04-24T05:23:22;2.25;;;1.10;;
37299;SDS011;23184;51.902;12.836;2023-04-24T05:25:48;2.83;;;1.05;;
37299;SDS011;23184;51.902;12.836;2023-04-24T05:28:13;1.83;;;1.58;;
37299;SDS011;23184;51.902;12.836;2023-04-24T05:30:40;1.30;;;1.10;;
37299;SDS011;23184;51.902;12.836;2023-04-24T05:33:05;3.95;;;1.40;;
37299;SDS011;23184;51.902;12.836;2023-04-24T05:35:31;2.83;;;1.00;;
37299;SDS011;23184;51.902;12.836;2023-04-24T05:37:56;1.92;;;1.13;;
37299;SDS011;23184;51.902;12.836;2023-04-24T05:40:22;3.78;;;1.60;;
37299;SDS011;23184;51.902;12.836;2023-04-24T05:42:47;2.38;;;1.33;;
37299;SDS011;23184;51.902;12.836;2023-04-24T05:45:13;2.65;;;1.30;;
37299;SDS011;23184;51.902;12.836;2023-04-24T05:47:41;5.22;;;1.60;;
37299;SDS011;23184;51.902;12.836;2023-04-24T05:50:08;2.33;;;1.20;;
37299;SDS011;23184;51.902;12.836;2023-04-24T05:52:34;2.78;;;0.93;;
37299;SDS011;23184;51.902;12.836;2023-04-24T05:55:00;1.42;;;1.02;;
37299;SDS011;23184;51.902;12.836;2023-04-24T05:57:25;2.15;;;1.20;;
37299;SDS011;23184;51.902;12.836;2023-04-24T05:59:51;3.05;;;1.20;;
37299;SDS011;23184;51.902;12.836;2023-04-24T06:02:16;2.97;;;1.23;;
37299;SDS011;23184;51.902;12.836;2023-04-24T06:04:42;3.17;;;1.10;;
37299;SDS011;23184;51.902;12.836;2023-04-24T06:07:09;3.95;;;1.20;;
37299;SDS011;23184;51.902;12.836;2023-04-24T06:09:35;2.97;;;1.10;;
37299;SDS011;23184;51.902;12.836;2023-04-24T06:12:01;1.27;;;1.08;;
37299;SDS011;23184;51.902;12.836;2023-04-24T06:14:27;3.88;;;1.40;;
37299;SDS011;23184;51.902;12.836;2023-04-24T06:16:52;1.90;;;1.05;;
37299;SDS011;23184;51.902;12.836;2023-04-24T06:19:18;2.75;;;1.05;;
37299;SDS011;23184;51.902;12.836;2023-04-24T06:21:43;1.45;;;1.10;;
37299;SDS011;23184;51.902;12.836;2023-04-24T06:24:09;1.20;;;1.00;;
37299;SDS011;23184;51.902;12.836;2023-04-24T06:26:35;3.95;;;1.10;;
37299;SDS011;23184;51.902;12.836;2023-04-24T06:29:01;1.05;;;0.93;;
37299;SDS011;23184;51.902;12.836;2023-04-24T06:31:26;1.58;;;1.00;;
37299;SDS011;23184;51.902;12.836;2023-04-24T06:33:52;2.00;;;1.05;;
37299;SDS011;23184;51.902;12.836;2023-04-24T06:36:17;1.90;;;1.20;;
37299;SDS011;23184;51.902;12.836;2023-04-24T06:38:43;1.80;;;1.10;;
37299;SDS011;23184;51.902;12.836;2023-04-24T06:41:09;1.58;;;1.00;;
37299;SDS011;23184;51.902;12.836;2023-04-24T06:43:35;2.75;;;1.17;;
37299;SDS011;23184;51.902;12.836;2023-04-24T06:46:00;2.85;;;0.90;;
37299;SDS011;23184;51.902;12.836;2023-04-24T06:48:28;2.33;;;1.05;;
37299;SDS011;23184;51.902;12.836;2023-04-24T06:50:53;3.47;;;1.10;;
37299;SDS011;23184;51.902;12.836;2023-04-24T06:53:19;1.90;;;1.02;;
37299;SDS011;23184;51.902;12.836;2023-04-24T06:55:45;4.18;;;1.17;;
37299;SDS011;23184;51.902;12.836;2023-04-24T06:58:11;1.15;;;0.93;;
37299;SDS011;23184;51.902;12.836;2023-04-24T07:00:37;1.95;;;0.90;;
37299;SDS011;23184;51.902;12.836;2023-04-24T07:03:03;4.47;;;1.17;;
37299;SDS011;23184;51.902;12.836;2023-04-24T07:05:30;1.98;;;0.98;;
37299;SDS011;23184;51.902;12.836;2023-04-24T07:07:55;2.97;;;1.25;;
37299;SDS011;23184;51.902;12.836;2023-04-24T07:10:23;2.30;;;1.00;;
37299;SDS011;23184;51.902;12.836;2023-04-24T07:12:49;3.17;;;1.00;;
37299;SDS011;23184;51.902;12.836;2023-04-24T07:15:15;3.10;;;1.13;;
37299;SDS011;23184;51.902;12.836;2023-04-24T07:17:41;2.53;;;0.95;;
37299;SDS011;23184;51.902;12.836;2023-04-24T07:20:09;2.13;;;1.05;;
37299;SDS011;23184;51.902;12.836;2023-04-24T07:22:36;2.65;;;0.88;;
37299;SDS011;23184;51.902;12.836;2023-04-24T07:25:02;2.15;;;0.93;;
37299;SDS011;23184;51.902;12.836;2023-04-24T07:27:28;2.42;;;1.23;;
37299;SDS011;23184;51.902;12.836;2023-04-24T07:29:54;2.47;;;0.73;;
37299;SDS011;23184;51.902;12.836;2023-04-24T07:32:19;2.60;;;0.95;;
37299;SDS011;23184;51.902;12.836;2023-04-24T07:34:45;3.83;;;0.90;;
37299;SDS011;23184;51.902;12.836;2023-04-24T07:37:10;1.25;;;0.73;;
37299;SDS011;23184;51.902;12.836;2023-04-24T07:39:36;1.35;;;0.60;;
37299;SDS011;23184;51.902;12.836;2023-04-24T07:42:01;1.55;;;0.85;;
37299;SDS011;23184;51.902;12.836;2023-04-24T07:44:27;2.72;;;0.80;;
37299;SDS011;23184;51.902;12.836;2023-04-24T07:46:53;2.35;;;0.88;;
37299;SDS011;23184;51.902;12.836;2023-04-24T07:49:18;3.35;;;0.88;;
37299;SDS011;23184;51.902;12.836;2023-04-24T07:51:44;2.75;;;1.10;;
37299;SDS011;23184;51.902;12.836;2023-04-24T07:54:10;4.82;;;1.17;;
37299;SDS011;23184;51.902;12.836;2023-04-24T07:56:35;3.10;;;0.93;;
37299;SDS011;23184;51.902;12.836;2023-04-24T07:59:03;1.85;;;0.70;;
37299;SDS011;23184;51.902;12.836;2023-04-24T08:01:29;2.80;;;0.93;;
37299;SDS011;23184;51.902;12.836;2023-04-24T08:03:55;1.17;;;0.90;;
37299;SDS011;23184;51.902;12.836;2023-04-24T08:06:21;4.97;;;1.00;;
37299;SDS011;23184;51.902;12.836;2023-04-24T08:08:47;2.22;;;0.88;;
37299;SDS011;23184;51.902;12.836;2023-04-24T08:11:12;2.40;;;0.90;;
37299;SDS011;23184;51.902;12.836;2023-04-24T08:13:38;3.10;;;0.90;;
37299;SDS011;23184;51.902;12.836;2023-04-24T08:16:03;3.17;;;0.88;;
37299;SDS011;23184;51.902;12.836;2023-04-24T08:18:29;5.53;;;1.30;;
37299;SDS011;23184;51.902;12.836;2023-04-24T08:20:54;4.38;;;0.88;;
37299;SDS011;23184;51.902;12.836;2023-04-24T08:23:21;1.15;;;0.60;;
37299;SDS011;23184;51.902;12.836;2023-04-24T08:25:47;3.45;;;1.08;;
37299;SDS011;23184;51.902;12.836;2023-04-24T08:28:13;1.10;;;0.80;;
37299;SDS011;23184;51.902;12.836;2023-04-24T08:30:44;2.25;;;0.95;;
37299;SDS011;23184;51.902;12.836;2023-04-24T08:33:10;1.60;;;0.85;;
37299;SDS011;23184;51.902;12.836;2023-04-24T08:35:36;2.05;;;0.80;;
37299;SDS011;23184;51.902;12.836;2023-04-24T08:38:01;2.47;;;0.75;;
37299;SDS011;23184;51.902;12.836;2023-04-24T08:40:27;1.85;;;1.10;;
37299;SDS011;23184;51.902;12.836;2023-04-24T08:42:54;4.20;;;1.02;;
37299;SDS011;23184;51.902;12.836;2023-04-24T08:45:23;1.95;;;1.00;;
37299;SDS011;23184;51.902;12.836;2023-04-24T08:47:49;2.42;;;0.93;;
37299;SDS011;23184;51.902;12.836;2023-04-24T08:50:17;3.60;;;0.85;;
37299;SDS011;23184;51.902;12.836;2023-04-24T08:52:42;2.20;;;0.82;;
37299;SDS011;23184;51.902;12.836;2023-04-24T08:55:08;5.25;;;0.98;;
37299;SDS011;23184;51.902;12.836;2023-04-24T08:57:33;3.20;;;1.15;;
37299;SDS011;23184;51.902;12.836;2023-04-24T09:00:00;3.65;;;0.80;;
37299;SDS011;23184;51.902;12.836;2023-04-24T09:02:27;3.53;;;0.90;;
37299;SDS011;23184;51.902;12.836;2023-04-24T09:04:53;2.50;;;1.02;;
37299;SDS011;23184;51.902;12.836;2023-04-24T09:07:21;1.30;;;0.60;;
37299;SDS011;23184;51.902;12.836;2023-04-24T09:09:49;1.98;;;0.93;;
37299;SDS011;23184;51.902;12.836;2023-04-24T09:12:15;3.28;;;0.70;;
37299;SDS011;23184;51.902;12.836;2023-04-24T09:14:42;4.15;;;0.82;;
37299;SDS011;23184;51.902;12.836;2023-04-24T09:17:09;1.63;;;0.73;;
37299;SDS011;23184;51.902;12.836;2023-04-24T09:19:36;1.70;;;0.60;;
37299;SDS011;23184;51.902;12.836;2023-04-24T09:22:04;2.00;;;1.00;;
37299;SDS011;23184;51.902;12.836;2023-04-24T09:24:31;4.53;;;0.70;;
37299;SDS011;23184;51.902;12.836;2023-04-24T09:26:57;2.35;;;0.80;;
37299;SDS011;23184;51.902;12.836;2023-04-24T09:29:23;2.90;;;0.80;;
37299;SDS011;23184;51.902;12.836;2023-04-24T09:31:50;2.85;;;0.70;;
37299;SDS011;23184;51.902;12.836;2023-04-24T09:34:20;1.23;;;0.57;;
37299;SDS011;23184;51.902;12.836;2023-04-24T09:36:47;2.28;;;0.63;;
37299;SDS011;23184;51.902;12.836;2023-04-24T09:39:14;1.48;;;0.65;;
37299;SDS011;23184;51.902;12.836;2023-04-24T09:41:48;2.80;;;0.80;;
37299;SDS011;23184;51.902;12.836;2023-04-24T09:44:15;4.50;;;0.80;;
37299;SDS011;23184;51.902;12.836;2023-04-24T09:46:51;3.60;;;1.13;;
37299;SDS011;23184;51.902;12.836;2023-04-24T09:49:25;0.80;;;0.63;;
37299;SDS011;23184;51.902;12.836;2023-04-24T09:52:05;4.55;;;1.58;;
37299;SDS011;23184;51.902;12.836;2023-04-24T09:54:35;3.40;;;0.63;;
37299;SDS011;23184;51.902;12.836;2023-04-24T09:57:01;1.75;;;0.80;;
37299;SDS011;23184;51.902;12.836;2023-04-24T09:59:27;2.97;;;0.90;;
37299;SDS011;23184;51.902;12.836;2023-04-24T10:01:53;2.85;;;1.00;;
37299;SDS011;23184;51.902;12.836;2023-04-24T10:04:21;1.60;;;0.77;;
37299;SDS011;23184;51.902;12.836;2023-04-24T10:06:51;3.17;;;0.73;;
37299;SDS011;23184;51.902;12.836;2023-04-24T10:09:19;1.80;;;0.80;;
37299;SDS011;23184;51.902;12.836;2023-04-24T10:11:47;1.83;;;0.75;;
37299;SDS011;23184;51.902;12.836;2023-04-24T10:14:14;4.78;;;0.90;;
37299;SDS011;23184;51.902;12.836;2023-04-24T10:16:41;0.93;;;0.50;;
37299;SDS011;23184;51.902;12.836;2023-04-24T10:19:08;3.33;;;0.73;;
37299;SDS011;23184;51.902;12.836;2023-04-24T10:21:35;1.40;;;0.77;;
37299;SDS011;23184;51.902;12.836;2023-04-24T10:24:04;0.98;;;0.60;;
37299;SDS011;23184;51.902;12.836;2023-04-24T10:26:32;1.15;;;0.88;;
37299;SDS011;23184;51.902;12.836;2023-04-24T10:28:58;1.08;;;0.52;;
37299;SDS011;23184;51.902;12.836;2023-04-24T10:31:23;1.25;;;0.75;;
37299;SDS011;23184;51.902;12.836;2023-04-24T10:33:50;2.40;;;0.70;;
37299;SDS011;23184;51.902;12.836;2023-04-24T10:36:17;2.15;;;0.50;;
37299;SDS011;23184;51.902;12.836;2023-04-24T10:38:43;1.80;;;0.60;;
37299;SDS011;23184;51.902;12.836;2023-04-24T10:41:11;1.80;;;0.60;;
37299;SDS011;23184;51.902;12.836;2023-04-24T10:43:44;1.52;;;0.80;;
37299;SDS011;23184;51.902;12.836;2023-04-24T10:46:10;2.15;;;0.70;;
37299;SDS011;23184;51.902;12.836;2023-04-24T10:48:41;3.10;;;0.80;;
37299;SDS011;23184;51.902;12.836;2023-04-24T10:51:10;2.15;;;0.70;;
37299;SDS011;23184;51.902;12.836;2023-04-24T10:53:37;3.35;;;0.70;;
37299;SDS011;23184;51.902;12.836;2023-04-24T10:58:37;5.20;;;0.90;;
37299;SDS011;23184;51.902;12.836;2023-04-24T11:01:11;2.67;;;0.68;;
37299;SDS011;23184;51.902;12.836;2023-04-24T11:03:55;1.10;;;0.63;;
37299;SDS011;23184;51.902;12.836;2023-04-24T11:06:32;9.07;;;0.70;;
37299;SDS011;23184;51.902;12.836;2023-04-24T11:09:07;0.60;;;0.60;;
37299;SDS011;23184;51.902;12.836;2023-04-24T11:11:35;4.15;;;0.68;;
37299;SDS011;23184;51.902;12.836;2023-04-24T11:14:03;1.35;;;0.85;;
37299;SDS011;23184;51.902;12.836;2023-04-24T11:19:23;2.88;;;0.65;;
37299;SDS011;23184;51.902;12.836;2023-04-24T11:21:57;6.00;;;0.68;;
37299;SDS011;23184;51.902;12.836;2023-04-24T11:24:31;0.80;;;0.70;;
37299;SDS011;23184;51.902;12.836;2023-04-24T11:30:16;6.13;;;0.80;;
37299;SDS011;23184;51.902;12.836;2023-04-24T11:35:14;2.53;;;0.73;;
37299;SDS011;23184;51.902;12.836;2023-04-24T11:37:41;2.35;;;0.50;;
37299;SDS011;23184;51.902;12.836;2023-04-24T11:40:11;3.60;;;0.80;;
37299;SDS011;23184;51.902;12.836;2023-04-24T11:42:39;4.40;;;0.70;;
37299;SDS011;23184;51.902;12.836;2023-04-24T11:45:11;1.73;;;0.85;;
37299;SDS011;23184;51.902;12.836;2023-04-24T11:47:37;3.90;;;0.93;;
37299;SDS011;23184;51.902;12.836;2023-04-24T11:50:04;2.97;;;0.88;;
37299;SDS011;23184;51.902;12.836;2023-04-24T11:52:31;0.98;;;0.70;;
37299;SDS011;23184;51.902;12.836;2023-04-24T11:55:01;1.65;;;0.80;;
37299;SDS011;23184;51.902;12.836;2023-04-24T11:57:27;1.92;;;0.77;;
37299;SDS011;23184;51.902;12.836;2023-04-24T11:59:58;3.20;;;0.80;;
37299;SDS011;23184;51.902;12.836;2023-04-24T12:02:24;1.00;;;0.75;;
37299;SDS011;23184;51.902;12.836;2023-04-24T12:04:54;0.70;;;0.70;;
37299;SDS011;23184;51.902;12.836;2023-04-24T12:07:20;2.17;;;0.88;;
37299;SDS011;23184;51.902;12.836;2023-04-24T12:09:48;0.80;;;0.70;;
37299;SDS011;23184;51.902;12.836;2023-04-24T12:12:27;2.40;;;1.05;;
37299;SDS011;23184;51.902;12.836;2023-04-24T12:14:54;0.98;;;0.80;;
37299;SDS011;23184;51.902;12.836;2023-04-24T12:17:31;2.67;;;0.95;;
37299;SDS011;23184;51.902;12.836;2023-04-24T12:20:06;5.72;;;1.10;;
37299;SDS011;23184;51.902;12.836;2023-04-24T12:22:49;3.50;;;1.00;;
37299;SDS011;23184;51.902;12.836;2023-04-24T12:25:18;3.95;;;0.63;;
37299;SDS011;23184;51.902;12.836;2023-04-24T12:27:45;1.15;;;0.80;;
37299;SDS011;23184;51.902;12.836;2023-04-24T12:30:15;2.33;;;0.70;;
37299;SDS011;23184;51.902;12.836;2023-04-24T12:32:42;2.78;;;0.60;;
37299;SDS011;23184;51.902;12.836;2023-04-24T12:35:13;3.95;;;0.70;;
37299;SDS011;23184;51.902;12.836;2023-04-24T12:37:43;1.17;;;0.70;;
37299;SDS011;23184;51.902;12.836;2023-04-24T12:40:09;1.23;;;0.60;;
37299;SDS011;23184;51.902;12.836;2023-04-24T12:42:41;3.97;;;0.73;;
37299;SDS011;23184;51.902;12.836;2023-04-24T12:45:08;1.52;;;0.70;;
37299;SDS011;23184;51.902;12.836;2023-04-24T12:47:34;6.18;;;1.02;;
37299;SDS011;23184;51.902;12.836;2023-04-24T12:50:01;0.93;;;0.60;;
37299;SDS011;23184;51.902;12.836;2023-04-24T12:52:28;3.47;;;1.00;;
37299;SDS011;23184;51.902;12.836;2023-04-24T12:54:55;3.15;;;0.75;;
37299;SDS011;23184;51.902;12.836;2023-04-24T12:57:23;4.85;;;1.25;;
37299;SDS011;23184;51.902;12.836;2023-04-24T12:59:50;1.75;;;0.85;;
37299;SDS011;23184;51.902;12.836;2023-04-24T13:02:20;0.82;;;0.80;;
37299;SDS011;23184;51.902;12.836;2023-04-24T13:04:47;5.55;;;1.20;;
37299;SDS011;23184;51.902;12.836;2023-04-24T13:07:13;1.00;;;0.80;;
37299;SDS011;23184;51.902;12.836;2023-04-24T13:09:39;4.25;;;0.98;;
37299;SDS011;23184;51.902;12.836;2023-04-24T13:12:06;3.42;;;1.17;;
37299;SDS011;23184;51.902;12.836;2023-04-24T13:14:32;1.08;;;0.75;;
37299;SDS011;23184;51.902;12.836;2023-04-24T13:16:57;3.00;;;1.10;;
37299;SDS011;23184;51.902;12.836;2023-04-24T13:19:24;4.78;;;1.10;;
37299;SDS011;23184;51.902;12.836;2023-04-24T13:21:54;6.32;;;1.30;;
37299;SDS011;23184;51.902;12.836;2023-04-24T13:24:21;4.95;;;1.00;;
37299;SDS011;23184;51.902;12.836;2023-04-24T13:26:49;1.50;;;0.80;;
37299;SDS011;23184;51.902;12.836;2023-04-24T13:29:15;3.13;;;1.08;;
37299;SDS011;23184;51.902;12.836;2023-04-24T13:31:40;4.53;;;1.30;;
37299;SDS011;23184;51.902;12.836;2023-04-24T13:34:06;3.50;;;1.08;;
37299;SDS011;23184;51.902;12.836;2023-04-24T13:36:32;2.72;;;1.10;;
37299;SDS011;23184;51.902;12.836;2023-04-24T13:38:57;3.75;;;1.27;;
37299;SDS011;23184;51.902;12.836;2023-04-24T13:41:23;3.92;;;1.15;;
37299;SDS011;23184;51.902;12.836;2023-04-24T13:43:49;3.97;;;1.33;;
37299;SDS011;23184;51.902;12.836;2023-04-24T13:46:14;1.27;;;0.90;;
37299;SDS011;23184;51.902;12.836;2023-04-24T13:48:41;1.67;;;1.08;;
37299;SDS011;23184;51.902;12.836;2023-04-24T13:51:06;3.65;;;0.98;;
37299;SDS011;23184;51.902;12.836;2023-04-24T13:53:31;1.60;;;0.90;;
37299;SDS011;23184;51.902;12.836;2023-04-24T13:56:00;3.28;;;1.00;;
37299;SDS011;23184;51.902;12.836;2023-04-24T13:58:26;10.02;;;1.10;;
37299;SDS011;23184;51.902;12.836;2023-04-24T14:00:52;1.63;;;1.10;;
37299;SDS011;23184;51.902;12.836;2023-04-24T14:03:18;1.33;;;0.90;;
37299;SDS011;23184;51.902;12.836;2023-04-24T14:05:43;2.22;;;1.00;;
37299;SDS011;23184;51.902;12.836;2023-04-24T14:08:08;1.42;;;1.10;;
37299;SDS011;23184;51.902;12.836;2023-04-24T14:10:34;2.03;;;0.90;;
37299;SDS011;23184;51.902;12.836;2023-04-24T14:13:00;1.55;;;0.82;;
37299;SDS011;23184;51.902;12.836;2023-04-24T14:15:25;2.10;;;1.15;;
37299;SDS011;23184;51.902;12.836;2023-04-24T14:17:51;3.53;;;1.50;;
37299;SDS011;23184;51.902;12.836;2023-04-24T14:20:16;0.75;;;0.70;;
37299;SDS011;23184;51.902;12.836;2023-04-24T14:22:42;7.00;;;1.48;;
37299;SDS011;23184;51.902;12.836;2023-04-24T14:25:07;4.63;;;1.25;;
37299;SDS011;23184;51.902;12.836;2023-04-24T14:27:33;2.90;;;0.85;;
37299;SDS011;23184;51.902;12.836;2023-04-24T14:29:59;1.10;;;1.00;;
37299;SDS011;23184;51.902;12.836;2023-04-24T14:32:25;4.60;;;1.30;;
37299;SDS011;23184;51.902;12.836;2023-04-24T14:34:51;1.30;;;0.90;;
37299;SDS011;23184;51.902;12.836;2023-04-24T14:37:16;2.92;;;1.00;;
37299;SDS011;23184;51.902;12.836;2023-04-24T14:39:42;4.43;;;1.00;;